Time;durP1;ratioP1;P1;durP2;ratioP2;P2;SDS_P1;SDS_P2;PMS_P1;PMS_P2;Temp;Humidity;BMP_temperature;BMP_pressure;BME280_temperature;BME280_humidity;BME280_pressure;Samples;Min_cycle;Max_cycle;Signal;HPM_P1;HPM_P2
2021/12/30 00:00:03;;;;;;;;;;;;;;;;;;5081727;28;20432;-87
2021/12/30 00:02:31;;;;;;;;;;;;;;;;;;5093296;28;20382;-87
2021/12/30 00:04:58;;;;;;;;;;;;;;;;;;5090771;28;19989;-86
2021/12/30 00:11:00;;;;;;;;;;;;;;;;;;5096260;28;19943;-88
2021/12/30 00:23:11;;;;;;;;;;;;;;;;;;5092436;28;19931;-85
2021/12/30 00:25:40;;;;;;;;;;;;;;;;;;5089262;28;20428;-85
2021/12/30 00:28:06;;;;;;;;;;;;;;;;;;5092209;28;19920;-86
2021/12/30 00:30:32;;;;;;;;;;;;;;;;;;5091658;28;19923;-84
2021/12/30 00:32:57;;;;;;;;;;;;;;;;;;5090649;28;19924;-85
2021/12/30 00:35:23;;;;;;;;;;;;;;;;;;5094691;28;19916;-86
2021/12/30 00:40:51;;;;;;;;;;;;;;;;;;5094162;28;19927;-86
2021/12/30 00:43:17;;;;;;;;;;;;;;;;;;5092450;28;19916;-86
2021/12/30 00:45:42;;;;;;;;;;;;;;;;;;5093334;28;20011;-85
2021/12/30 00:48:08;;;;;;;;;;;;;;;;;;5093802;28;19935;-86
2021/12/30 00:50:35;;;;;;;;;;;;;;;;;;5087172;28;19920;-84
2021/12/30 00:53:01;;;;;;;;;;;;;;;;;;5093598;28;19920;-85
2021/12/30 00:55:27;;;;;;;;;;;;;;;;;;5092280;28;19927;-86
2021/12/30 00:57:52;;;;;;;;;;;;;;;;;;5093591;28;20005;-85
2021/12/30 01:03:21;;;;;;;;;;;;;;;;;;5089227;28;20411;-84
2021/12/30 01:05:46;;;;;;;;;;;;;;;;;;5095726;28;19948;-84
2021/12/30 01:08:12;;;;;;;;;;;;;;;;;;5094302;28;19928;-85
2021/12/30 01:16:44;;;;;;;;;;;;;;;;;;5091375;28;21445;-85
2021/12/30 01:22:03;;;;;;;;;;;;;;;;;;5086384;28;19916;-85
2021/12/30 01:24:28;;;;;;;;;;;;;;;;;;5080199;28;20379;-84
2021/12/30 01:26:54;;;;;;;;;;;;;;;;;;5091325;28;20395;-86
2021/12/30 01:29:19;;;;;;;;;;;;;;;;;;5091679;28;20022;-86
2021/12/30 01:31:44;;;;;;;;;;;;;;;;;;5092394;28;19920;-85
2021/12/30 01:34:11;;;;;;;;;;;;;;;;;;5082673;28;19924;-86
2021/12/30 01:36:37;;;;;;;;;;;;;;;;;;5090794;28;19928;-86
2021/12/30 01:39:02;;;;;;;;;;;;;;;;;;5090085;28;19924;-85
2021/12/30 01:41:28;;;;;;;;;;;;;;;;;;5091734;28;19974;-84
2021/12/30 01:43:53;;;;;;;;;;;;;;;;;;5090876;28;19924;-86
2021/12/30 01:46:19;;;;;;;;;;;;;;;;;;5090866;28;19946;-85
2021/12/30 01:48:44;;;;;;;;;;;;;;;;;;5092169;28;20390;-85
2021/12/30 01:51:10;;;;;;;;;;;;;;;;;;5089806;28;19975;-85
2021/12/30 01:53:36;;;;;;;;;;;;;;;;;;5089703;28;19927;-86
2021/12/30 01:56:02;;;;;;;;;;;;;;;;;;5091121;28;19944;-85
2021/12/30 01:58:27;;;;;;;;;;;;;;;;;;5094762;28;19920;-86
2021/12/30 02:00:53;;;;;;;;;;;;;;;;;;5090959;28;20450;-85
2021/12/30 02:03:19;;;;;;;;;;;;;;;;;;5091210;28;19928;-86
2021/12/30 02:05:45;;;;;;;;;;;;;;;;;;5093849;28;19970;-85
2021/12/30 02:08:13;;;;;;;;;;;;;;;;;;5091680;28;19967;-85
2021/12/30 02:10:40;;;;;;;;;;;;;;;;;;5091869;28;19946;-84
2021/12/30 02:13:06;;;;;;;;;;;;;;;;;;5092088;28;19920;-86
2021/12/30 02:15:31;;;;;;;;;;;;;;;;;;5090883;28;19927;-86
2021/12/30 02:17:59;;;;;;;;;;;;;;;;;;5089235;28;19924;-85
2021/12/30 02:20:37;;;;;;;;;;;;;;;;;;5092907;28;19924;-85
2021/12/30 02:23:04;;;;;;;;;;;;;;;;;;5093271;28;19916;-85
2021/12/30 02:25:29;;;;;;;;;;;;;;;;;;5092901;28;19920;-86
2021/12/30 02:27:55;;;;;;;;;;;;;;;;;;5091407;28;19939;-85
2021/12/30 02:30:20;;;;;;;;;;;;;;;;;;5091938;28;19973;-84
2021/12/30 02:32:45;;;;;;;;;;;;;;;;;;5090705;28;20302;-85
2021/12/30 02:35:11;;;;;;;;;;;;;;;;;;5089977;28;19974;-85
2021/12/30 02:37:36;;;;;;;;;;;;;;;;;;5090392;28;20624;-85
2021/12/30 02:40:02;;;;;;;;;;;;;;;;;;5082162;28;19920;-85
2021/12/30 02:42:27;;;;;;;;;;;;;;;;;;5091826;28;20003;-87
2021/12/30 02:44:53;;;;;;;;;;;;;;;;;;5094057;28;20325;-86
2021/12/30 02:47:19;;;;;;;;;;;;;;;;;;5092919;28;19923;-85
2021/12/30 02:49:44;;;;;;;;;;;;;;;;;;5092990;28;20294;-85
2021/12/30 02:52:10;;;;;;;;;;;;;;;;;;5081455;28;20033;-84
2021/12/30 02:54:37;;;;;;;;;;;;;;;;;;5091778;28;19943;-86
2021/12/30 02:57:03;;;;;;;;;;;;;;;;;;5091706;28;19932;-84
2021/12/30 02:59:28;;;;;;;;;;;;;;;;;;5092356;28;20029;-87
2021/12/30 03:01:55;;;;;;;;;;;;;;;;;;5093045;28;20295;-86
2021/12/30 03:04:20;;;;;;;;;;;;;;;;;;5093864;28;20229;-84
2021/12/30 03:06:46;;;;;;;;;;;;;;;;;;5081038;28;19923;-84
2021/12/30 03:09:11;;;;;;;;;;;;;;;;;;5093967;28;20418;-86
2021/12/30 03:11:36;;;;;;;;;;;;;;;;;;5093800;28;20349;-84
2021/12/30 03:14:02;;;;;;;;;;;;;;;;;;5092527;28;19974;-86
2021/12/30 03:16:32;;;;;;;;;;;;;;;;;;5093835;28;19943;-84
2021/12/30 03:18:58;;;;;;;;;;;;;;;;;;5093635;28;19962;-84
2021/12/30 03:21:24;;;;;;;;;;;;;;;;;;5093663;28;19927;-85
2021/12/30 03:23:50;;;;;;;;;;;;;;;;;;5075641;28;19916;-84
2021/12/30 03:26:15;;;;;;;;;;;;;;;;;;5093711;28;19916;-84
2021/12/30 03:28:43;;;;;;;;;;;;;;;;;;5093675;28;19920;-86
2021/12/30 03:31:09;;;;;;;;;;;;;;;;;;5093640;28;20295;-85
2021/12/30 03:33:34;;;;;;;;;;;;;;;;;;5093582;28;19920;-85
2021/12/30 03:36:01;;;;;;;;;;;;;;;;;;5093565;28;19916;-86
2021/12/30 03:38:27;;;;;;;;;;;;;;;;;;5093605;28;19920;-87
2021/12/30 03:40:53;;;;;;;;;;;;;;;;;;5093567;28;19920;-87
2021/12/30 03:43:18;;;;;;;;;;;;;;;;;;5093509;28;20070;-85
2021/12/30 03:45:44;;;;;;;;;;;;;;;;;;5093488;28;19989;-85
2021/12/30 03:48:10;;;;;;;;;;;;;;;;;;5093582;28;19916;-86
2021/12/30 03:50:42;;;;;;;;;;;;;;;;;;5093653;28;20268;-87
2021/12/30 03:53:08;;;;;;;;;;;;;;;;;;5093386;28;20379;-84
2021/12/30 03:55:33;;;;;;;;;;;;;;;;;;5093184;28;19971;-83
2021/12/30 03:57:59;;;;;;;;;;;;;;;;;;5093669;28;19916;-84
2021/12/30 04:00:26;;;;;;;;;;;;;;;;;;5093490;28;20010;-85
2021/12/30 04:02:51;;;;;;;;;;;;;;;;;;5093625;28;19916;-84
2021/12/30 04:05:17;;;;;;;;;;;;;;;;;;5093415;28;19918;-84
2021/12/30 04:07:43;;;;;;;;;;;;;;;;;;5093285;28;19954;-84
2021/12/30 04:10:09;;;;;;;;;;;;;;;;;;5093368;28;19916;-86
2021/12/30 04:12:35;;;;;;;;;;;;;;;;;;5095933;28;20413;-84
2021/12/30 04:15:01;;;;;;;;;;;;;;;;;;5097471;28;19916;-85
2021/12/30 04:17:27;;;;;;;;;;;;;;;;;;5097130;28;19958;-85
2021/12/30 04:19:52;;;;;;;;;;;;;;;;;;5096756;28;19920;-86
2021/12/30 04:22:18;;;;;;;;;;;;;;;;;;5096824;28;19923;-84
2021/12/30 04:24:47;;;;;;;;;;;;;;;;;;5096718;28;19920;-85
2021/12/30 04:27:13;;;;;;;;;;;;;;;;;;5096758;28;19917;-85
2021/12/30 04:29:38;;;;;;;;;;;;;;;;;;5096697;28;19942;-84
2021/12/30 04:32:04;;;;;;;;;;;;;;;;;;5093504;28;19924;-84
2021/12/30 04:34:29;;;;;;;;;;;;;;;;;;5096472;28;19923;-85
2021/12/30 04:36:58;;;;;;;;;;;;;;;;;;5096565;28;20007;-86
2021/12/30 04:39:27;;;;;;;;;;;;;;;;;;5096487;28;19985;-85
2021/12/30 04:41:53;;;;;;;;;;;;;;;;;;5092921;28;19924;-85
2021/12/30 04:44:18;;;;;;;;;;;;;;;;;;5088892;28;19920;-86
2021/12/30 04:46:44;;;;;;;;;;;;;;;;;;5094817;28;19935;-85
2021/12/30 04:49:09;;;;;;;;;;;;;;;;;;5094772;28;19929;-87
2021/12/30 04:51:35;;;;;;;;;;;;;;;;;;5096514;28;19967;-85
2021/12/30 04:54:00;;;;;;;;;;;;;;;;;;5093991;28;20291;-86
2021/12/30 04:56:26;;;;;;;;;;;;;;;;;;5080251;28;20013;-86
2021/12/30 04:58:51;;;;;;;;;;;;;;;;;;5075036;28;20011;-87
2021/12/30 05:01:16;;;;;;;;;;;;;;;;;;5073591;28;19917;-85
2021/12/30 05:03:42;;;;;;;;;;;;;;;;;;5075048;28;19940;-86
2021/12/30 05:06:07;;;;;;;;;;;;;;;;;;5075726;28;19942;-86
2021/12/30 05:08:33;;;;;;;;;;;;;;;;;;5075612;28;19940;-85
2021/12/30 05:10:59;;;;;;;;;;;;;;;;;;5075705;28;19923;-86
2021/12/30 05:13:24;;;;;;;;;;;;;;;;;;5075503;28;19927;-84
2021/12/30 05:15:50;;;;;;;;;;;;;;;;;;5075463;28;19916;-85
2021/12/30 05:18:16;;;;;;;;;;;;;;;;;;5075577;28;19917;-85
2021/12/30 05:20:41;;;;;;;;;;;;;;;;;;5075373;28;19917;-86
2021/12/30 05:23:08;;;;;;;;;;;;;;;;;;5074361;28;20438;-87
2021/12/30 05:25:33;;;;;;;;;;;;;;;;;;5074694;28;19927;-87
2021/12/30 05:27:59;;;;;;;;;;;;;;;;;;5073903;28;19916;-85
2021/12/30 05:30:24;;;;;;;;;;;;;;;;;;5074015;28;20394;-86
2021/12/30 05:32:51;;;;;;;;;;;;;;;;;;5075238;28;19926;-86
2021/12/30 05:35:17;;;;;;;;;;;;;;;;;;5075135;28;19923;-86
2021/12/30 05:37:43;;;;;;;;;;;;;;;;;;5073792;28;20323;-85
2021/12/30 05:40:10;;;;;;;;;;;;;;;;;;5074927;28;20003;-85
2021/12/30 05:42:35;;;;;;;;;;;;;;;;;;5074967;28;19923;-85
2021/12/30 05:45:02;;;;;;;;;;;;;;;;;;5074891;28;19917;-86
2021/12/30 05:47:28;;;;;;;;;;;;;;;;;;5074863;28;19923;-86
2021/12/30 05:49:53;;;;;;;;;;;;;;;;;;5074893;28;19916;-85
2021/12/30 05:52:19;;;;;;;;;;;;;;;;;;5074748;28;19920;-85
2021/12/30 05:54:44;;;;;;;;;;;;;;;;;;5074657;28;20013;-85
2021/12/30 05:57:10;;;;;;;;;;;;;;;;;;5093630;28;19971;-84
2021/12/30 05:59:35;;;;;;;;;;;;;;;;;;5076738;28;19923;-84
2021/12/30 06:02:01;;;;;;;;;;;;;;;;;;5094821;28;19916;-86
2021/12/30 06:04:27;;;;;;;;;;;;;;;;;;5094825;28;19924;-87
2021/12/30 06:06:53;;;;;;;;;;;;;;;;;;5093877;28;19920;-86
2021/12/30 06:09:21;;;;;;;;;;;;;;;;;;5094815;28;19916;-87
2021/12/30 06:11:47;;;;;;;;;;;;;;;;;;5094756;28;19939;-87
2021/12/30 06:14:12;;;;;;;;;;;;;;;;;;5094475;28;20363;-87
2021/12/30 06:16:37;;;;;;;;;;;;;;;;;;5094617;28;20375;-90
2021/12/30 06:19:03;;;;;;;;;;;;;;;;;;5094520;28;19916;-89
2021/12/30 06:21:28;;;;;;;;;;;;;;;;;;5094536;28;19916;-88
2021/12/30 06:23:54;;;;;;;;;;;;;;;;;;5093132;28;20359;-89
2021/12/30 06:26:19;;;;;;;;;;;;;;;;;;5094456;28;19916;-87
2021/12/30 06:28:45;;;;;;;;;;;;;;;;;;5094367;28;20390;-87
2021/12/30 06:31:10;;;;;;;;;;;;;;;;;;5094261;28;19927;-86
2021/12/30 06:33:35;;;;;;;;;;;;;;;;;;5094232;28;19924;-90
2021/12/30 06:36:01;;;;;;;;;;;;;;;;;;5094025;28;19916;-89
2021/12/30 06:38:26;;;;;;;;;;;;;;;;;;5094272;28;19966;-86
2021/12/30 06:40:52;;;;;;;;;;;;;;;;;;5094214;28;19916;-90
2021/12/30 06:43:17;;;;;;;;;;;;;;;;;;5094403;28;20061;-86
2021/12/30 06:45:44;;;;;;;;;;;;;;;;;;5092880;28;20410;-86
2021/12/30 06:48:13;;;;;;;;;;;;;;;;;;5094378;28;20391;-86
2021/12/30 06:50:39;;;;;;;;;;;;;;;;;;5093035;28;19963;-85
2021/12/30 06:53:04;;;;;;;;;;;;;;;;;;5094276;28;19916;-84
2021/12/30 06:55:30;;;;;;;;;;;;;;;;;;5094225;28;20011;-88
2021/12/30 06:57:55;;;;;;;;;;;;;;;;;;5094598;28;19916;-92
2021/12/30 07:00:21;;;;;;;;;;;;;;;;;;5095179;28;19915;-90
2021/12/30 07:02:46;;;;;;;;;;;;;;;;;;5093446;28;19922;-91
2021/12/30 07:05:12;;;;;;;;;;;;;;;;;;5093722;28;20007;-83
2021/12/30 07:07:38;;;;;;;;;;;;;;;;;;5094309;28;20015;-92
2021/12/30 07:10:04;;;;;;;;;;;;;;;;;;5093725;28;19989;-91
2021/12/30 07:12:30;;;;;;;;;;;;;;;;;;5095301;28;19918;-88
2021/12/30 07:14:57;;;;;;;;;;;;;;;;;;5093914;28;19916;-86
2021/12/30 07:17:22;;;;;;;;;;;;;;;;;;5094112;28;19916;-90
2021/12/30 07:19:48;;;;;;;;;;;;;;;;;;5093715;28;19969;-83
2021/12/30 07:22:13;;;;;;;;;;;;;;;;;;5094012;28;19920;-83
2021/12/30 07:24:39;;;;;;;;;;;;;;;;;;5094036;28;19916;-85
2021/12/30 07:27:04;;;;;;;;;;;;;;;;;;5093565;28;19923;-87
2021/12/30 07:29:30;;;;;;;;;;;;;;;;;;5095216;28;19916;-88
2021/12/30 07:31:55;;;;;;;;;;;;;;;;;;5094428;28;19943;-83
2021/12/30 07:34:20;;;;;;;;;;;;;;;;;;5092927;28;19960;-90
2021/12/30 07:36:46;;;;;;;;;;;;;;;;;;5094301;28;19917;-91
2021/12/30 07:39:11;;;;;;;;;;;;;;;;;;5093807;28;20293;-93
2021/12/30 07:41:37;;;;;;;;;;;;;;;;;;5094584;28;20359;-89
2021/12/30 07:44:02;;;;;;;;;;;;;;;;;;5092933;28;20371;-86
2021/12/30 07:46:28;;;;;;;;;;;;;;;;;;5096519;28;20402;-92
2021/12/30 07:48:53;;;;;;;;;;;;;;;;;;5098575;28;19919;-93
2021/12/30 07:51:18;;;;;;;;;;;;;;;;;;5097789;28;19916;-89
2021/12/30 07:53:44;;;;;;;;;;;;;;;;;;5097827;28;19920;-86
2021/12/30 07:56:09;;;;;;;;;;;;;;;;;;5097397;28;19929;-83
2021/12/30 07:58:35;;;;;;;;;;;;;;;;;;5096942;28;20385;-83
2021/12/30 08:01:01;;;;;;;;;;;;;;;;;;5097408;28;20018;-89
2021/12/30 08:03:26;;;;;;;;;;;;;;;;;;5097558;28;19912;-83
2021/12/30 08:05:52;;;;;;;;;;;;;;;;;;5093744;28;20301;-89
2021/12/30 08:08:17;;;;;;;;;;;;;;;;;;5088851;28;19959;-85
2021/12/30 08:10:43;;;;;;;;;;;;;;;;;;5071125;28;20443;-81
2021/12/30 08:13:08;;;;;;;;;;;;;;;;;;5093153;28;19928;-82
2021/12/30 08:15:34;;;;;;;;;;;;;;;;;;5093384;28;19924;-85
2021/12/30 08:17:59;;;;;;;;;;;;;;;;;;5089974;28;19927;-88
2021/12/30 08:20:27;;;;;;;;;;;;;;;;;;5091199;28;19942;-84
2021/12/30 08:22:52;;;;;;;;;;;;;;;;;;5088514;28;19928;-84
2021/12/30 08:25:18;;;;;;;;;;;;;;;;;;5094017;28;19927;-84
2021/12/30 08:27:44;;;;;;;;;;;;;;;;;;5094070;28;19924;-90
2021/12/30 08:30:12;;;;;;;;;;;;;;;;;;5096972;28;19916;-85
2021/12/30 08:32:38;;;;;;;;;;;;;;;;;;5096705;28;19916;-83
2021/12/30 08:35:04;;;;;;;;;;;;;;;;;;5097224;28;19924;-88
2021/12/30 08:37:30;;;;;;;;;;;;;;;;;;5096716;28;20352;-88
2021/12/30 08:39:55;;;;;;;;;;;;;;;;;;5096654;28;19957;-84
2021/12/30 08:42:23;;;;;;;;;;;;;;;;;;5096550;28;19923;-84
2021/12/30 08:44:49;;;;;;;;;;;;;;;;;;5078299;28;20282;-86
2021/12/30 08:47:15;;;;;;;;;;;;;;;;;;5096459;28;19920;-85
2021/12/30 08:49:45;;;;;;;;;;;;;;;;;;5098549;28;19974;-86
2021/12/30 08:52:15;;;;;;;;;;;;;;;;;;5089382;28;19920;-87
2021/12/30 08:54:40;;;;;;;;;;;;;;;;;;5093068;28;19920;-85
2021/12/30 08:57:06;;;;;;;;;;;;;;;;;;5094523;28;19920;-85
2021/12/30 08:59:32;;;;;;;;;;;;;;;;;;5093856;28;19924;-86
2021/12/30 09:01:57;;;;;;;;;;;;;;;;;;5090453;28;19935;-83
2021/12/30 09:04:23;;;;;;;;;;;;;;;;;;5093491;28;19920;-83
2021/12/30 09:06:48;;;;;;;;;;;;;;;;;;5095203;28;20283;-85
2021/12/30 09:09:14;;;;;;;;;;;;;;;;;;5095061;28;20011;-83
2021/12/30 09:11:39;;;;;;;;;;;;;;;;;;5091542;28;20294;-89
2021/12/30 09:14:04;;;;;;;;;;;;;;;;;;5082035;28;20376;-84
2021/12/30 09:16:30;;;;;;;;;;;;;;;;;;5080885;28;20572;-85
2021/12/30 09:18:56;;;;;;;;;;;;;;;;;;5090648;28;20014;-84
2021/12/30 09:21:21;;;;;;;;;;;;;;;;;;5090297;28;19920;-86
2021/12/30 09:23:48;;;;;;;;;;;;;;;;;;5091378;28;20291;-85
2021/12/30 09:26:14;;;;;;;;;;;;;;;;;;5091298;28;20395;-86
2021/12/30 09:28:39;;;;;;;;;;;;;;;;;;5084640;28;20053;-86
2021/12/30 09:31:05;;;;;;;;;;;;;;;;;;5089965;28;20073;-85
2021/12/30 09:33:30;;;;;;;;;;;;;;;;;;5080283;28;20015;-85
2021/12/30 09:35:56;;;;;;;;;;;;;;;;;;5082986;28;19927;-86
2021/12/30 09:38:21;;;;;;;;;;;;;;;;;;5082413;28;19927;-86
2021/12/30 09:40:47;;;;;;;;;;;;;;;;;;5092184;28;19928;-87
2021/12/30 09:43:13;;;;;;;;;;;;;;;;;;5087121;28;19920;-90
2021/12/30 09:45:40;;;;;;;;;;;;;;;;;;5086144;28;19938;-91
2021/12/30 09:48:07;;;;;;;;;;;;;;;;;;5076316;28;19966;-87
2021/12/30 09:50:34;;;;;;;;;;;;;;;;;;5091641;28;19926;-85
2021/12/30 09:53:00;;;;;;;;;;;;;;;;;;5090339;28;19965;-86
2021/12/30 09:55:26;;;;;;;;;;;;;;;;;;5090205;28;19931;-86
2021/12/30 09:57:55;;;;;;;;;;;;;;;;;;5089774;28;19920;-85
2021/12/30 10:00:21;;;;;;;;;;;;;;;;;;5089283;28;19920;-88
2021/12/30 10:02:46;;;;;;;;;;;;;;;;;;5091796;28;19943;-85
2021/12/30 10:05:16;;;;;;;;;;;;;;;;;;5092207;28;20379;-87
2021/12/30 10:07:42;;;;;;;;;;;;;;;;;;5094171;28;20298;-89
2021/12/30 10:10:26;;;;;;;;;;;;;;;;;;5092068;28;19920;-86
2021/12/30 10:12:52;;;;;;;;;;;;;;;;;;5076044;28;19920;-87
2021/12/30 10:15:19;;;;;;;;;;;;;;;;;;5091852;28;19927;-86
2021/12/30 10:17:55;;;;;;;;;;;;;;;;;;5089024;28;19924;-86
2021/12/30 10:20:27;;;;;;;;;;;;;;;;;;5084680;28;19920;-84
2021/12/30 10:22:53;;;;;;;;;;;;;;;;;;5093418;28;19920;-86
2021/12/30 10:25:29;;;;;;;;;;;;;;;;;;5086939;28;19920;-87
2021/12/30 10:27:55;;;;;;;;;;;;;;;;;;5094808;28;19924;-83
2021/12/30 10:30:33;;;;;;;;;;;;;;;;;;5094967;28;20333;-87
2021/12/30 10:33:09;;;;;;;;;;;;;;;;;;5092426;28;19924;-87
2021/12/30 10:35:35;;;;;;;;;;;;;;;;;;5078986;28;19928;-89
2021/12/30 10:38:03;;;;;;;;;;;;;;;;;;5092179;28;19920;-88
2021/12/30 10:40:32;;;;;;;;;;;;;;;;;;5090801;28;19920;-87
2021/12/30 10:43:17;;;;;;;;;;;;;;;;;;5084079;28;19924;-90
2021/12/30 10:46:01;;;;;;;;;;;;;;;;;;5094169;28;19969;-93
2021/12/30 10:48:27;;;;;;;;;;;;;;;;;;5090407;28;19933;-86
2021/12/30 10:51:07;;;;;;;;;;;;;;;;;;5090063;28;20036;-90
2021/12/30 10:53:35;;;;;;;;;;;;;;;;;;5089218;28;20023;-86
2021/12/30 10:56:17;;;;;;;;;;;;;;;;;;5092973;28;20340;-87
2021/12/30 10:58:43;;;;;;;;;;;;;;;;;;5092087;28;19920;-86
2021/12/30 11:01:15;;;;;;;;;;;;;;;;;;5082275;28;19927;-85
2021/12/30 11:03:42;;;;;;;;;;;;;;;;;;5089543;28;19920;-85
2021/12/30 11:06:12;;;;;;;;;;;;;;;;;;5091513;28;19920;-85
2021/12/30 11:08:37;;;;;;;;;;;;;;;;;;5089471;28;20395;-86
2021/12/30 11:11:25;;;;;;;;;;;;;;;;;;5092770;28;19927;-86
2021/12/30 11:13:57;;;;;;;;;;;;;;;;;;5091734;28;19920;-87
2021/12/30 11:16:22;;;;;;;;;;;;;;;;;;5089032;28;19921;-85
2021/12/30 11:18:47;;;;;;;;;;;;;;;;;;5094158;28;19964;-84
2021/12/30 11:21:33;;;;;;;;;;;;;;;;;;5082652;28;20011;-85
2021/12/30 11:23:58;;;;;;;;;;;;;;;;;;5085227;28;19966;-87
2021/12/30 11:26:24;;;;;;;;;;;;;;;;;;5086552;28;19924;-85
2021/12/30 11:28:50;;;;;;;;;;;;;;;;;;5096474;28;19920;-85
2021/12/30 11:31:15;;;;;;;;;;;;;;;;;;5098459;28;19920;-91
2021/12/30 11:33:41;;;;;;;;;;;;;;;;;;5098230;28;19943;-86
2021/12/30 11:36:06;;;;;;;;;;;;;;;;;;5099420;28;19920;-88
2021/12/30 11:38:32;;;;;;;;;;;;;;;;;;5101486;28;19916;-88
2021/12/30 11:40:57;;;;;;;;;;;;;;;;;;5095086;28;20363;-84
2021/12/30 11:43:22;;;;;;;;;;;;;;;;;;5096296;28;19924;-84
2021/12/30 11:45:48;;;;;;;;;;;;;;;;;;5095514;28;20015;-85
2021/12/30 11:48:25;;;;;;;;;;;;;;;;;;5095699;28;20438;-86
2021/12/30 11:51:01;;;;;;;;;;;;;;;;;;5083433;28;19928;-86
2021/12/30 11:53:30;;;;;;;;;;;;;;;;;;5095307;28;20019;-85
2021/12/30 11:55:56;;;;;;;;;;;;;;;;;;5097669;28;19924;-85
2021/12/30 11:58:40;;;;;;;;;;;;;;;;;;5102388;28;19920;-84
2021/12/30 12:01:11;;;;;;;;;;;;;;;;;;5099055;28;19946;-87
2021/12/30 12:03:56;;;;;;;;;;;;;;;;;;5098167;28;19916;-93
2021/12/30 12:06:46;;;;;;;;;;;;;;;;;;5098048;28;19928;-86
2021/12/30 12:09:37;;;;;;;;;;;;;;;;;;5092864;28;19923;-90
2021/12/30 12:12:10;;;;;;;;;;;;;;;;;;5089024;28;19948;-87
2021/12/30 12:14:39;;;;;;;;;;;;;;;;;;5094268;28;19946;-90
2021/12/30 12:17:23;;;;;;;;;;;;;;;;;;5094229;28;19924;-87
2021/12/30 12:19:53;;;;;;;;;;;;;;;;;;5092949;28;21686;-86
2021/12/30 12:22:19;;;;;;;;;;;;;;;;;;5091774;28;19927;-85
2021/12/30 12:24:46;;;;;;;;;;;;;;;;;;5093686;28;20058;-86
2021/12/30 12:27:21;;;;;;;;;;;;;;;;;;5096235;28;19920;-86
2021/12/30 12:29:55;;;;;;;;;;;;;;;;;;5096592;28;19912;-86
2021/12/30 12:32:38;;;;;;;;;;;;;;;;;;5096291;28;19920;-87
2021/12/30 12:35:08;;;;;;;;;;;;;;;;;;5095944;28;19920;-87
2021/12/30 12:37:36;;;;;;;;;;;;;;;;;;5095213;28;19920;-87
2021/12/30 12:40:20;;;;;;;;;;;;;;;;;;5079441;28;19942;-87
2021/12/30 12:42:50;;;;;;;;;;;;;;;;;;5096724;28;19916;-86
2021/12/30 12:45:20;;;;;;;;;;;;;;;;;;5096748;28;20002;-87
2021/12/30 12:47:46;;;;;;;;;;;;;;;;;;5097509;28;19916;-85
2021/12/30 12:50:12;;;;;;;;;;;;;;;;;;5097059;28;20283;-85
2021/12/30 12:52:45;;;;;;;;;;;;;;;;;;5097766;28;19923;-86
2021/12/30 12:55:21;;;;;;;;;;;;;;;;;;5098055;28;20014;-85
2021/12/30 12:57:46;;;;;;;;;;;;;;;;;;5100211;28;20325;-85
2021/12/30 13:00:12;;;;;;;;;;;;;;;;;;5080280;28;19944;-89
2021/12/30 13:02:38;;;;;;;;;;;;;;;;;;5097273;28;19963;-87
2021/12/30 13:05:12;;;;;;;;;;;;;;;;;;5096937;28;19924;-87
2021/12/30 13:07:38;;;;;;;;;;;;;;;;;;5098064;28;19938;-89
2021/12/30 13:10:04;;;;;;;;;;;;;;;;;;5097129;28;20355;-92
2021/12/30 13:12:38;;;;;;;;;;;;;;;;;;5098375;28;19926;-88
2021/12/30 13:15:12;;;;;;;;;;;;;;;;;;5096792;28;20010;-88
2021/12/30 13:17:38;;;;;;;;;;;;;;;;;;5098743;28;19916;-85
2021/12/30 13:20:04;;;;;;;;;;;;;;;;;;5098654;28;20021;-85
2021/12/30 13:22:31;;;;;;;;;;;;;;;;;;5096183;28;19917;-93
2021/12/30 13:24:57;;;;;;;;;;;;;;;;;;5096317;28;20371;-91
2021/12/30 13:27:33;;;;;;;;;;;;;;;;;;5096168;28;20002;-89
2021/12/30 13:30:00;;;;;;;;;;;;;;;;;;5096365;28;19923;-89
2021/12/30 13:32:30;;;;;;;;;;;;;;;;;;5102467;28;19916;-86
2021/12/30 13:35:02;;;;;;;;;;;;;;;;;;5087368;28;20019;-86
2021/12/30 13:37:32;;;;;;;;;;;;;;;;;;5090809;28;19928;-90
2021/12/30 13:39:58;;;;;;;;;;;;;;;;;;5096233;28;20012;-86
2021/12/30 13:42:25;;;;;;;;;;;;;;;;;;5096466;28;19952;-90
2021/12/30 13:44:53;;;;;;;;;;;;;;;;;;5094624;28;19919;-84
2021/12/30 13:47:26;;;;;;;;;;;;;;;;;;5095469;28;19916;-86
2021/12/30 13:49:53;;;;;;;;;;;;;;;;;;5091936;28;19923;-85
2021/12/30 13:52:20;;;;;;;;;;;;;;;;;;5094840;28;19916;-92
2021/12/30 13:55:08;;;;;;;;;;;;;;;;;;5095109;28;20421;-85
2021/12/30 13:57:34;;;;;;;;;;;;;;;;;;5052692;28;19920;-86
2021/12/30 13:59:59;;;;;;;;;;;;;;;;;;5055222;28;20344;-86
2021/12/30 14:02:25;;;;;;;;;;;;;;;;;;5053871;28;19995;-87
2021/12/30 14:04:50;;;;;;;;;;;;;;;;;;5054167;28;20289;-90
2021/12/30 14:07:17;;;;;;;;;;;;;;;;;;5051174;28;19921;-91
2021/12/30 14:09:53;;;;;;;;;;;;;;;;;;5050375;28;19921;-87
2021/12/30 14:12:18;;;;;;;;;;;;;;;;;;5053877;28;20261;-84
2021/12/30 14:14:45;;;;;;;;;;;;;;;;;;5054756;28;19936;-85
2021/12/30 14:17:18;;;;;;;;;;;;;;;;;;5053832;28;19920;-87
2021/12/30 14:19:49;;;;;;;;;;;;;;;;;;5054417;28;19924;-86
2021/12/30 14:22:15;;;;;;;;;;;;;;;;;;5054905;28;19921;-86
2021/12/30 14:24:41;;;;;;;;;;;;;;;;;;5054496;28;19998;-90
2021/12/30 14:27:15;;;;;;;;;;;;;;;;;;5054859;28;20431;-91
2021/12/30 14:29:41;;;;;;;;;;;;;;;;;;5055057;28;19913;-88
2021/12/30 14:32:10;;;;;;;;;;;;;;;;;;5054322;28;19940;-87
2021/12/30 14:34:38;;;;;;;;;;;;;;;;;;5054320;28;19917;-87
2021/12/30 14:37:12;;;;;;;;;;;;;;;;;;5054716;28;20360;-92
2021/12/30 14:39:43;;;;;;;;;;;;;;;;;;5054270;28;19921;-88
2021/12/30 14:42:21;;;;;;;;;;;;;;;;;;5052835;28;20299;-88
2021/12/30 14:44:53;;;;;;;;;;;;;;;;;;5052640;28;19956;-89
2021/12/30 14:47:29;;;;;;;;;;;;;;;;;;5054313;28;20323;-89
2021/12/30 14:49:58;;;;;;;;;;;;;;;;;;5054078;28;20406;-86
2021/12/30 14:52:25;;;;;;;;;;;;;;;;;;5054163;28;20275;-89
2021/12/30 14:54:51;;;;;;;;;;;;;;;;;;5054062;28;20373;-91
2021/12/30 14:57:20;;;;;;;;;;;;;;;;;;5092186;28;19921;-95
2021/12/30 14:59:46;;;;;;;;;;;;;;;;;;5094410;28;20011;-91
2021/12/30 15:02:12;;;;;;;;;;;;;;;;;;5094400;28;19923;-90
2021/12/30 15:04:38;;;;;;;;;;;;;;;;;;5095764;28;20291;-85
2021/12/30 15:07:04;;;;;;;;;;;;;;;;;;5094447;28;19916;-87
2021/12/30 15:09:29;;;;;;;;;;;;;;;;;;5094022;28;20263;-85
2021/12/30 15:11:56;;;;;;;;;;;;;;;;;;5094221;28;19916;-86
2021/12/30 15:14:21;;;;;;;;;;;;;;;;;;5094482;28;20363;-90
2021/12/30 15:16:47;;;;;;;;;;;;;;;;;;5094522;28;19923;-91
2021/12/30 15:19:15;;;;;;;;;;;;;;;;;;5095578;28;19916;-88
2021/12/30 15:21:41;;;;;;;;;;;;;;;;;;5094334;28;19916;-92
2021/12/30 15:24:06;;;;;;;;;;;;;;;;;;5093936;28;19917;-87
2021/12/30 15:26:32;;;;;;;;;;;;;;;;;;5094197;28;19916;-91
2021/12/30 15:28:57;;;;;;;;;;;;;;;;;;5093872;28;20432;-88
2021/12/30 15:31:23;;;;;;;;;;;;;;;;;;5093973;28;20329;-88
2021/12/30 15:33:48;;;;;;;;;;;;;;;;;;5093594;28;19923;-87
2021/12/30 15:36:14;;;;;;;;;;;;;;;;;;5093667;28;19977;-87
2021/12/30 15:38:40;;;;;;;;;;;;;;;;;;5093708;28;19912;-90
2021/12/30 15:41:05;;;;;;;;;;;;;;;;;;5093563;28;19978;-89
2021/12/30 15:43:31;;;;;;;;;;;;;;;;;;5093651;28;20011;-88
2021/12/30 15:45:57;;;;;;;;;;;;;;;;;;5093779;28;19991;-87
2021/12/30 15:48:27;;;;;;;;;;;;;;;;;;5093561;28;19917;-86
2021/12/30 15:50:53;;;;;;;;;;;;;;;;;;5093516;28;19916;-86
2021/12/30 15:53:18;;;;;;;;;;;;;;;;;;5093427;28;19935;-88
2021/12/30 15:55:43;;;;;;;;;;;;;;;;;;5093442;28;20093;-91
2021/12/30 15:58:09;;;;;;;;;;;;;;;;;;5093576;28;19938;-86
2021/12/30 16:00:34;;;;;;;;;;;;;;;;;;5093715;28;20323;-88
2021/12/30 16:03:00;;;;;;;;;;;;;;;;;;5093560;28;20280;-87
2021/12/30 16:05:29;;;;;;;;;;;;;;;;;;5093848;28;19963;-90
2021/12/30 16:07:54;;;;;;;;;;;;;;;;;;5094096;28;19920;-89
2021/12/30 16:10:20;;;;;;;;;;;;;;;;;;5097313;28;19924;-88
2021/12/30 16:12:45;;;;;;;;;;;;;;;;;;5097701;28;19969;-90
2021/12/30 16:15:11;;;;;;;;;;;;;;;;;;5097793;28;19920;-88
2021/12/30 16:17:38;;;;;;;;;;;;;;;;;;5098012;28;19916;-88
2021/12/30 16:20:05;;;;;;;;;;;;;;;;;;5097288;28;20019;-89
2021/12/30 16:22:31;;;;;;;;;;;;;;;;;;5097263;28;19916;-87
2021/12/30 16:24:56;;;;;;;;;;;;;;;;;;5096985;28;19916;-89
2021/12/30 16:27:22;;;;;;;;;;;;;;;;;;5095489;28;19923;-89
2021/12/30 16:29:47;;;;;;;;;;;;;;;;;;5096897;28;19958;-90
2021/12/30 16:32:13;;;;;;;;;;;;;;;;;;5096325;28;19966;-91
2021/12/30 16:34:38;;;;;;;;;;;;;;;;;;5096840;28;19923;-89
2021/12/30 16:37:05;;;;;;;;;;;;;;;;;;5096869;28;19924;-90
2021/12/30 16:39:31;;;;;;;;;;;;;;;;;;5095602;28;19920;-91
2021/12/30 16:41:56;;;;;;;;;;;;;;;;;;5096989;28;20294;-88
2021/12/30 16:44:22;;;;;;;;;;;;;;;;;;5096602;28;20382;-89
2021/12/30 16:46:47;;;;;;;;;;;;;;;;;;5096892;28;20330;-92
2021/12/30 16:49:17;;;;;;;;;;;;;;;;;;5096490;28;19966;-87
2021/12/30 16:51:43;;;;;;;;;;;;;;;;;;5097009;28;19970;-88
2021/12/30 16:54:08;;;;;;;;;;;;;;;;;;5096447;28;19920;-84
2021/12/30 16:56:33;;;;;;;;;;;;;;;;;;5096235;28;19965;-83
2021/12/30 16:58:59;;;;;;;;;;;;;;;;;;5096184;28;19916;-82
2021/12/30 17:01:24;;;;;;;;;;;;;;;;;;5096054;28;19920;-84
2021/12/30 17:03:50;;;;;;;;;;;;;;;;;;5096289;28;19916;-83
2021/12/30 17:06:15;;;;;;;;;;;;;;;;;;5096580;28;20000;-90
2021/12/30 17:08:41;;;;;;;;;;;;;;;;;;5096204;28;19916;-84
2021/12/30 17:11:06;;;;;;;;;;;;;;;;;;5096245;28;20014;-83
2021/12/30 17:13:32;;;;;;;;;;;;;;;;;;5095995;28;19917;-85